Time;durP1;ratioP1;P1;durP2;ratioP2;P2;SDS_P1;SDS_P2;PMS_P1;PMS_P2;Temp;Humidity;BMP_temperature;BMP_pressure;BME280_temperature;BME280_humidity;BME280_pressure;Samples;Min_cycle;Max_cycle;Signal;HPM_P1;HPM_P2
2021/03/30 00:01:22;;;;;;;11.32;5.15;;;13.30;62.70;;;;;;5050140;28;20378;-58
2021/03/30 00:03:48;;;;;;;9.40;5.25;;;13.20;62.70;;;;;;5050849;28;20140;-59
2021/03/30 00:06:13;;;;;;;22.83;5.20;;;13.30;63.40;;;;;;5049885;28;20025;-58
2021/03/30 00:08:39;;;;;;;10.05;5.50;;;13.30;63.40;;;;;;5050672;28;20025;-58
2021/03/30 00:11:05;;;;;;;8.05;4.70;;;13.40;62.90;;;;;;5048887;28;20032;-66
2021/03/30 00:13:31;;;;;;;8.20;4.43;;;13.40;62.90;;;;;;5032361;28;20144;-59
2021/03/30 00:15:57;;;;;;;12.27;5.43;;;13.40;62.90;;;;;;5050624;28;20104;-59
2021/03/30 00:18:23;;;;;;;14.63;5.10;;;13.30;63.60;;;;;;5050253;28;20045;-58
2021/03/30 00:20:49;;;;;;;12.40;5.63;;;13.30;63.60;;;;;;5046074;28;20135;-58
2021/03/30 00:23:15;;;;;;;10.25;4.72;;;13.30;63.40;;;;;;5070170;28;20541;-59
2021/03/30 00:25:41;;;;;;;9.13;5.10;;;13.30;63.20;;;;;;5070329;28;20033;-58
2021/03/30 00:28:06;;;;;;;11.63;5.32;;;13.20;63.80;;;;;;5052125;28;20025;-60
2021/03/30 00:30:33;;;;;;;12.45;5.18;;;13.20;64.20;;;;;;5070243;28;20595;-58
2021/03/30 00:32:58;;;;;;;11.93;5.70;;;13.10;64.30;;;;;;5070570;28;20041;-58
2021/03/30 00:35:24;;;;;;;14.70;5.28;;;13.10;64.10;;;;;;5068600;28;20123;-58
2021/03/30 00:37:50;;;;;;;7.30;4.70;;;13.10;64.00;;;;;;5072605;28;20137;-58
2021/03/30 00:40:16;;;;;;;11.90;5.13;;;13.00;64.30;;;;;;5073632;28;20073;-58
2021/03/30 00:42:42;;;;;;;29.88;7.05;;;13.00;65.00;;;;;;5073871;28;20491;-58
2021/03/30 00:45:11;;;;;;;12.02;5.38;;;13.00;64.80;;;;;;5072128;28;20029;-58
2021/03/30 00:47:43;;;;;;;8.65;4.28;;;12.90;71.40;;;;;;5072594;28;20564;-58
2021/03/30 00:50:12;;;;;;;10.68;4.25;;;12.90;65.80;;;;;;5071852;28;20024;-60
2021/03/30 00:52:38;;;;;;;11.02;4.95;;;12.60;66.30;;;;;;5073758;28;20457;-58
2021/03/30 00:55:06;;;;;;;13.05;5.03;;;12.50;65.80;;;;;;5073770;28;20024;-59
2021/03/30 00:57:33;;;;;;;11.35;4.18;;;12.50;66.20;;;;;;5073323;28;20474;-59
2021/03/30 00:59:59;;;;;;;13.85;6.60;;;12.60;66.40;;;;;;5073764;28;20028;-59
2021/03/30 01:02:25;;;;;;;7.63;4.93;;;12.60;66.40;;;;;;5072856;28;20120;-58
2021/03/30 01:04:51;;;;;;;14.13;4.85;;;12.60;66.70;;;;;;5073442;28;20382;-58
2021/03/30 01:07:16;;;;;;;8.18;4.47;;;12.60;66.10;;;;;;5073280;28;20036;-59
2021/03/30 01:10:27;;;;;;;9.02;4.57;;;12.50;66.50;;;;;;5073521;28;20115;-58
2021/03/30 01:13:03;;;;;;;16.00;4.78;;;12.50;66.70;;;;;;5042415;28;20343;-58
2021/03/30 01:15:31;;;;;;;12.70;5.97;;;12.50;67.30;;;;;;5071883;28;20211;-59
2021/03/30 01:18:17;;;;;;;9.00;4.28;;;12.50;67.10;;;;;;5073326;28;20521;-58
2021/03/30 01:21:07;;;;;;;12.43;4.82;;;12.30;66.80;;;;;;5065657;28;20355;-57
2021/03/30 01:24:10;;;;;;;9.25;4.93;;;12.10;67.20;;;;;;5052639;28;20436;-60
2021/03/30 01:27:02;;;;;;;16.13;5.95;;;11.90;68.40;;;;;;5053742;28;20079;-57
2021/03/30 01:29:50;;;;;;;8.98;5.43;;;12.10;68.30;;;;;;5034944;28;20033;-58
2021/03/30 01:32:35;;;;;;;10.15;4.53;;;12.20;67.70;;;;;;5034813;28;20033;-58
2021/03/30 01:35:03;;;;;;;14.00;4.55;;;12.20;68.60;;;;;;5035018;28;20033;-59
2021/03/30 01:37:28;;;;;;;8.35;5.07;;;12.10;68.40;;;;;;5052641;28;20029;-58
2021/03/30 01:39:58;;;;;;;9.35;5.35;;;12.10;68.30;;;;;;5053291;28;20143;-59
2021/03/30 01:42:28;;;;;;;11.55;5.13;;;12.20;68.40;;;;;;5034419;28;20383;-60
2021/03/30 01:44:55;;;;;;;10.25;5.32;;;12.10;68.50;;;;;;5035288;28;20033;-58
2021/03/30 01:47:22;;;;;;;9.98;5.32;;;12.10;69.20;;;;;;5052324;28;20065;-58
2021/03/30 01:49:48;;;;;;;8.23;4.97;;;12.00;68.90;;;;;;5052200;28;20041;-58
2021/03/30 01:52:17;;;;;;;10.27;5.60;;;11.90;69.30;;;;;;5052688;28;20033;-58
2021/03/30 01:54:44;;;;;;;8.25;4.75;;;11.80;69.20;;;;;;5034909;28;20403;-59
2021/03/30 01:57:12;;;;;;;10.55;5.07;;;11.90;70.30;;;;;;5052501;28;20048;-59
2021/03/30 01:59:40;;;;;;;8.73;5.68;;;11.80;69.70;;;;;;5052661;28;20459;-57
2021/03/30 02:02:06;;;;;;;7.88;5.07;;;11.80;70.00;;;;;;5052288;28;20120;-58
2021/03/30 02:04:34;;;;;;;13.32;5.05;;;11.70;70.30;;;;;;5033980;28;20108;-58
2021/03/30 02:07:00;;;;;;;8.52;5.35;;;11.70;70.00;;;;;;5052573;28;20526;-59
2021/03/30 02:09:33;;;;;;;13.48;5.30;;;11.70;70.50;;;;;;5052290;28;20056;-57
2021/03/30 02:12:03;;;;;;;8.38;5.25;;;11.70;70.50;;;;;;5052645;28;20433;-58
2021/03/30 02:14:28;;;;;;;12.82;5.50;;;11.70;70.80;;;;;;5051650;28;20064;-58
2021/03/30 02:17:02;;;;;;;12.50;5.40;;;11.70;70.80;;;;;;5052158;28;20137;-58
2021/03/30 02:19:55;;;;;;;10.00;4.88;;;11.70;70.70;;;;;;5051779;28;20067;-58
2021/03/30 02:22:35;;;;;;;11.95;6.13;;;11.60;71.00;;;;;;5051515;28;20072;-58
2021/03/30 02:25:05;;;;;;;9.98;5.00;;;11.60;71.40;;;;;;5052258;28;20037;-58
2021/03/30 02:27:34;;;;;;;12.90;5.53;;;11.60;71.40;;;;;;5052003;28;20379;-59
2021/03/30 02:30:01;;;;;;;14.30;4.85;;;11.60;71.50;;;;;;5052142;28;20052;-59
2021/03/30 02:32:28;;;;;;;9.13;5.05;;;11.60;72.40;;;;;;5033663;28;20036;-58
2021/03/30 02:34:55;;;;;;;6.28;4.60;;;11.50;71.60;;;;;;5052023;28;20044;-58
2021/03/30 02:37:22;;;;;;;10.85;6.53;;;11.40;72.30;;;;;;5051642;28;20028;-57
2021/03/30 02:39:48;;;;;;;9.77;4.60;;;11.40;72.30;;;;;;5051968;28;20132;-58
2021/03/30 02:42:16;;;;;;;13.40;4.88;;;11.50;72.70;;;;;;5051158;28;20040;-61
2021/03/30 02:44:42;;;;;;;12.52;4.78;;;11.40;72.70;;;;;;5051641;28;20056;-60
2021/03/30 02:47:10;;;;;;;5.07;3.78;;;11.50;72.00;;;;;;5052159;28;20033;-58
2021/03/30 02:49:36;;;;;;;10.93;4.82;;;11.40;72.70;;;;;;5051195;28;20090;-58
2021/03/30 02:52:04;;;;;;;12.38;4.82;;;11.30;72.70;;;;;;5034717;28;20033;-58
2021/03/30 02:54:30;;;;;;;13.27;5.22;;;10.90;73.60;;;;;;5053675;28;20063;-61
2021/03/30 02:57:00;;;;;;;6.70;4.72;;;10.80;74.40;;;;;;5053938;28;20028;-59
2021/03/30 02:59:29;;;;;;;7.93;5.32;;;10.60;75.30;;;;;;5053024;28;20462;-59
2021/03/30 03:01:56;;;;;;;11.93;5.28;;;10.80;74.70;;;;;;5052785;28;20135;-59
2021/03/30 03:04:23;;;;;;;10.57;5.07;;;10.50;75.40;;;;;;5052901;28;20351;-59
2021/03/30 03:06:49;;;;;;;10.45;5.25;;;10.60;75.80;;;;;;5055204;28;20104;-63
2021/03/30 03:09:16;;;;;;;8.40;5.22;;;10.70;75.50;;;;;;5038141;28;20382;-60
2021/03/30 03:11:44;;;;;;;9.02;4.78;;;10.60;76.60;;;;;;5037691;28;20037;-58
2021/03/30 03:14:12;;;;;;;11.70;5.03;;;10.30;76.70;;;;;;5036461;28;20116;-58
2021/03/30 03:16:39;;;;;;;8.80;4.40;;;10.50;76.60;;;;;;5053996;28;20029;-59
2021/03/30 03:19:09;;;;;;;11.43;5.30;;;10.50;76.50;;;;;;5053837;28;20087;-60
2021/03/30 03:21:36;;;;;;;10.45;4.80;;;10.70;76.30;;;;;;5061274;28;20056;-61
2021/03/30 03:24:04;;;;;;;9.93;5.03;;;10.80;76.40;;;;;;5072507;28;20021;-62
2021/03/30 03:26:31;;;;;;;8.85;5.20;;;10.80;76.40;;;;;;5072709;28;20094;-68
2021/03/30 03:28:58;;;;;;;9.02;5.05;;;10.90;76.20;;;;;;5073318;28;20020;-60
2021/03/30 03:31:28;;;;;;;12.50;5.50;;;10.80;76.10;;;;;;5072536;28;20139;-61
2021/03/30 03:34:01;;;;;;;10.98;5.65;;;10.60;76.80;;;;;;5072783;28;20066;-58
2021/03/30 03:36:35;;;;;;;10.40;6.18;;;10.40;78.00;;;;;;5072023;28;20111;-58
2021/03/30 03:39:00;;;;;;;8.18;4.68;;;10.40;78.50;;;;;;5071895;28;20055;-62
2021/03/30 03:41:26;;;;;;;9.07;5.65;;;10.10;78.80;;;;;;5070820;28;20063;-57
2021/03/30 03:43:52;;;;;;;11.30;5.35;;;10.20;79.10;;;;;;5071129;28;20455;-60
2021/03/30 03:46:18;;;;;;;10.60;4.15;;;10.20;79.10;;;;;;5072131;28;20029;-65
2021/03/30 03:48:44;;;;;;;12.63;4.72;;;10.20;79.30;;;;;;5072768;28;20032;-58
2021/03/30 03:51:11;;;;;;;7.03;4.15;;;10.30;79.00;;;;;;5072554;28;20024;-64
2021/03/30 03:53:38;;;;;;;11.48;5.20;;;10.40;78.90;;;;;;5071539;28;20111;-58
2021/03/30 03:56:05;;;;;;;11.85;4.75;;;10.50;78.80;;;;;;5072501;28;20155;-60
2021/03/30 03:58:44;;;;;;;8.35;4.68;;;10.50;78.60;;;;;;5069946;28;20055;-58
2021/03/30 04:01:14;;;;;;;10.25;5.00;;;10.40;79.20;;;;;;5071067;28;20041;-58
2021/03/30 04:03:52;;;;;;;7.68;4.32;;;10.50;79.10;;;;;;5071640;28;20109;-59
2021/03/30 04:06:22;;;;;;;11.40;4.80;;;10.50;79.10;;;;;;5072690;28;20355;-60
2021/03/30 04:08:51;;;;;;;9.00;5.07;;;10.50;79.20;;;;;;5072998;28;20595;-58
2021/03/30 04:11:17;;;;;;;10.75;5.63;;;10.40;79.90;;;;;;5074589;28;20432;-58
2021/03/30 04:13:48;;;;;;;6.55;4.15;;;10.30;79.60;;;;;;5076273;28;20025;-60
2021/03/30 04:16:14;;;;;;;12.57;5.25;;;10.10;80.30;;;;;;5077886;28;20470;-59
2021/03/30 04:18:42;;;;;;;9.43;5.03;;;10.10;80.80;;;;;;5075964;28;20043;-64
2021/03/30 04:21:30;;;;;;;8.27;4.78;;;9.90;81.80;;;;;;5064928;28;20044;-58
2021/03/30 04:23:57;;;;;;;11.85;4.75;;;10.00;81.50;;;;;;5038208;28;20064;-63
2021/03/30 04:26:24;;;;;;;12.05;5.13;;;10.00;82.00;;;;;;5037646;28;20127;-61
2021/03/30 04:28:50;;;;;;;7.97;4.80;;;10.10;82.00;;;;;;5038341;28;20049;-58
2021/03/30 04:31:15;;;;;;;10.93;5.40;;;10.10;82.20;;;;;;5038008;28;20076;-65
2021/03/30 04:33:41;;;;;;;12.02;4.65;;;10.20;81.60;;;;;;5055663;28;20428;-60
2021/03/30 04:36:08;;;;;;;13.45;5.10;;;10.20;82.60;;;;;;5038015;28;20065;-60
2021/03/30 04:38:33;;;;;;;8.80;5.28;;;10.00;82.10;;;;;;5037376;28;20032;-59
2021/03/30 04:40:59;;;;;;;9.52;5.63;;;9.90;82.70;;;;;;5055474;28;20391;-59
2021/03/30 04:43:25;;;;;;;8.88;4.53;;;9.80;83.30;;;;;;5037214;28;20486;-60
2021/03/30 04:45:51;;;;;;;10.35;6.03;;;9.80;83.90;;;;;;5037962;28;20033;-59
2021/03/30 04:48:17;;;;;;;10.27;5.63;;;9.80;83.30;;;;;;5056427;28;20107;-59
2021/03/30 04:50:44;;;;;;;10.70;5.72;;;10.00;83.80;;;;;;5055756;28;20021;-60
2021/03/30 04:53:10;;;;;;;12.15;5.10;;;10.00;83.60;;;;;;5056434;28;20036;-59
2021/03/30 04:55:36;;;;;;;11.75;5.65;;;9.90;84.00;;;;;;5055608;28;20031;-58
2021/03/30 04:58:02;;;;;;;12.23;5.53;;;9.90;83.70;;;;;;5037938;28;20029;-59
2021/03/30 05:00:28;;;;;;;9.88;5.07;;;9.90;84.20;;;;;;5037068;28;20021;-60
2021/03/30 05:02:54;;;;;;;12.07;6.03;;;9.90;84.30;;;;;;5037568;28;20033;-60
2021/03/30 05:05:20;;;;;;;16.13;5.82;;;9.90;84.20;;;;;;5055166;28;20025;-58
2021/03/30 05:07:45;;;;;;;17.27;6.45;;;10.00;84.50;;;;;;5036778;28;20478;-59
2021/03/30 05:10:12;;;;;;;10.43;5.70;;;9.90;84.60;;;;;;5037403;28;20099;-59
2021/03/30 05:12:38;;;;;;;10.63;5.30;;;9.90;85.30;;;;;;5036431;28;20029;-58
2021/03/30 05:15:04;;;;;;;18.35;4.85;;;9.90;84.60;;;;;;5037316;28;20044;-59
2021/03/30 05:17:30;;;;;;;12.93;5.13;;;9.90;85.10;;;;;;5054127;28;20033;-60
2021/03/30 05:19:55;;;;;;;10.20;4.97;;;10.00;84.60;;;;;;5054778;28;20491;-60
2021/03/30 05:22:21;;;;;;;11.13;7.15;;;9.90;84.50;;;;;;5054600;28;20063;-61
2021/03/30 05:24:47;;;;;;;11.57;6.95;;;10.00;84.30;;;;;;5052830;28;20029;-60
2021/03/30 05:27:13;;;;;;;9.55;5.40;;;10.00;84.90;;;;;;5036494;28;20026;-58
2021/03/30 05:29:44;;;;;;;13.48;5.25;;;10.00;85.40;;;;;;5054145;28;20021;-59
2021/03/30 05:32:15;;;;;;;15.05;6.25;;;9.90;85.90;;;;;;5036783;28;20466;-59
2021/03/30 05:34:42;;;;;;;16.38;6.35;;;10.00;85.40;;;;;;5054202;28;20029;-59
2021/03/30 05:37:08;;;;;;;9.80;4.97;;;10.00;85.30;;;;;;5054481;28;20378;-59
2021/03/30 05:39:34;;;;;;;13.40;5.55;;;10.10;85.20;;;;;;5036131;28;20025;-58
2021/03/30 05:42:00;;;;;;;10.32;6.20;;;10.00;84.90;;;;;;5054553;28;20394;-62
2021/03/30 05:44:30;;;;;;;16.60;6.47;;;10.00;85.70;;;;;;5036059;28;20124;-60
2021/03/30 05:47:38;;;;;;;17.58;5.28;;;10.00;85.60;;;;;;5036444;28;20544;-60
2021/03/30 05:49:45;;;;;;;11.90;4.93;;;10.10;85.30;;;;;;5042852;28;20241;-60
2021/03/30 05:52:22;;;;;;;11.82;5.35;;;10.20;84.70;;;;;;5036502;28;20037;-60
2021/03/30 05:54:49;;;;;;;10.02;5.75;;;10.20;84.40;;;;;;5053614;28;20205;-59
2021/03/30 05:57:16;;;;;;;10.32;5.80;;;10.20;84.50;;;;;;5054365;28;20035;-66
2021/03/30 05:59:44;;;;;;;9.60;5.53;;;10.30;84.50;;;;;;5053574;28;20086;-60
2021/03/30 06:02:28;;;;;;;9.85;5.32;;;10.30;84.40;;;;;;5036190;28;20419;-63
2021/03/30 06:04:57;;;;;;;13.10;4.97;;;10.50;83.90;;;;;;5054090;28;20036;-61
2021/03/30 06:07:23;;;;;;;7.35;5.18;;;10.50;83.90;;;;;;5036099;28;20465;-61
2021/03/30 06:09:48;;;;;;;10.07;4.95;;;10.50;83.00;;;;;;5053780;28;20065;-64
2021/03/30 06:12:15;;;;;;;14.57;6.15;;;10.40;82.80;;;;;;5036221;28;20029;-59
2021/03/30 06:14:46;;;;;;;14.30;5.05;;;10.40;83.30;;;;;;5053324;28;20453;-62
2021/03/30 06:17:13;;;;;;;9.48;5.43;;;10.50;82.40;;;;;;5053975;28;20036;-60
2021/03/30 06:19:54;;;;;;;11.25;5.38;;;10.50;82.40;;;;;;5035488;28;20082;-58
2021/03/30 06:22:23;;;;;;;12.60;5.05;;;10.40;82.60;;;;;;5070642;28;20146;-61
2021/03/30 06:24:51;;;;;;;10.18;6.00;;;10.20;84.40;;;;;;5072631;28;20032;-64
2021/03/30 06:27:20;;;;;;;14.80;5.15;;;10.00;83.80;;;;;;5072321;28;20123;-60
2021/03/30 06:29:48;;;;;;;15.18;5.22;;;10.20;83.80;;;;;;5072683;28;20435;-61
2021/03/30 06:32:16;;;;;;;11.27;5.90;;;10.30;83.50;;;;;;5073621;28;20049;-60
2021/03/30 06:34:44;;;;;;;11.07;4.45;;;9.90;84.80;;;;;;5071307;28;20359;-59
2021/03/30 06:37:28;;;;;;;12.23;5.15;;;10.20;84.10;;;;;;5073582;28;20373;-59
2021/03/30 06:40:18;;;;;;;16.40;5.70;;;10.70;83.10;;;;;;5073167;28;20054;-60
2021/03/30 06:42:51;;;;;;;17.50;6.05;;;10.80;82.10;;;;;;5071079;28;20040;-60
2021/03/30 06:45:23;;;;;;;13.45;5.38;;;11.10;81.30;;;;;;5073008;28;20028;-59
2021/03/30 06:47:52;;;;;;;14.50;6.03;;;11.30;80.40;;;;;;5073030;28;20029;-64
2021/03/30 06:50:20;;;;;;;11.25;5.30;;;11.40;79.40;;;;;;5072428;28;20042;-59
2021/03/30 06:52:46;;;;;;;9.23;5.57;;;11.10;80.00;;;;;;5072082;28;20374;-59
2021/03/30 06:55:14;;;;;;;9.50;5.45;;;11.10;79.70;;;;;;5073980;28;20031;-60
2021/03/30 06:57:45;;;;;;;10.70;5.10;;;11.10;80.30;;;;;;5071850;28;20051;-59
2021/03/30 07:00:24;;;;;;;10.68;5.75;;;11.50;79.50;;;;;;5073319;28;20030;-60
2021/03/30 07:02:56;;;;;;;9.80;5.20;;;12.20;77.80;;;;;;5070123;28;20116;-60
2021/03/30 07:05:30;;;;;;;;;;;12.50;76.80;;;;;;5071642;28;20461;-60
2021/03/30 07:08:01;;;;;;;7.35;4.72;;;12.70;75.70;;;;;;5070108;28;19912;-59
2021/03/30 07:10:27;;;;;;;9.55;5.05;;;13.00;75.40;;;;;;5069453;28;20058;-59
2021/03/30 07:12:54;;;;;;;15.88;5.28;;;13.20;74.10;;;;;;5070336;28;20081;-58
2021/03/30 07:15:24;;;;;;;11.15;5.72;;;13.60;72.90;;;;;;5070997;28;20469;-58
2021/03/30 07:18:23;;;;;;;8.05;5.43;;;13.50;73.10;;;;;;5070484;28;20239;-59
2021/03/30 07:20:58;;;;;;;12.38;4.90;;;13.40;73.40;;;;;;5068677;28;20477;-58
2021/03/30 07:23:28;;;;;;;9.82;5.13;;;13.30;72.90;;;;;;5070635;28;20028;-60
2021/03/30 07:26:04;;;;;;;15.55;6.50;;;13.70;73.20;;;;;;5068437;28;20024;-60
2021/03/30 07:28:35;;;;;;;12.68;4.97;;;13.40;72.70;;;;;;5070671;28;20058;-59
2021/03/30 07:31:05;;;;;;;12.80;5.88;;;14.10;71.40;;;;;;5071009;28;20085;-58
2021/03/30 07:33:46;;;;;;;9.60;4.93;;;14.10;70.70;;;;;;5070785;28;20123;-68
2021/03/30 07:36:16;;;;;;;15.15;6.18;;;14.40;70.70;;;;;;5069520;28;20036;-60
2021/03/30 07:38:49;;;;;;;7.82;5.40;;;14.10;69.20;;;;;;5069972;28;20032;-59
2021/03/30 07:41:19;;;;;;;12.30;5.40;;;14.20;69.80;;;;;;5070495;28;20037;-59
2021/03/30 07:43:46;;;;;;;13.63;5.93;;;14.10;70.20;;;;;;5068609;28;20465;-59
2021/03/30 07:46:13;;;;;;;13.95;5.75;;;14.40;69.20;;;;;;5068946;28;20037;-59
2021/03/30 07:48:40;;;;;;;12.68;6.32;;;14.60;68.90;;;;;;5069652;28;20032;-60
2021/03/30 07:51:12;;;;;;;14.38;5.47;;;15.30;68.30;;;;;;5070670;28;20032;-59
2021/03/30 07:53:52;;;;;;;12.20;4.88;;;15.80;66.90;;;;;;5069967;28;20029;-60
2021/03/30 07:56:24;;;;;;;11.50;6.05;;;15.90;64.80;;;;;;5069159;28;20028;-59
2021/03/30 07:58:52;;;;;;;11.77;5.13;;;16.00;64.80;;;;;;5070021;28;20046;-60
2021/03/30 08:01:19;;;;;;;11.85;5.60;;;16.10;64.80;;;;;;5070289;28;20036;-59
2021/03/30 08:03:47;;;;;;;9.05;4.97;;;16.60;64.50;;;;;;5070561;28;20422;-61
2021/03/30 08:06:19;;;;;;;11.25;5.20;;;16.60;63.70;;;;;;5071072;28;20066;-60
2021/03/30 08:08:47;;;;;;;8.32;4.82;;;16.50;62.60;;;;;;5069027;28;20087;-61
2021/03/30 08:11:14;;;;;;;11.48;5.70;;;16.50;63.60;;;;;;5069867;28;20029;-61
2021/03/30 08:13:58;;;;;;;9.25;5.00;;;17.00;62.40;;;;;;5070253;28;20119;-61
2021/03/30 08:16:25;;;;;;;15.02;5.63;;;17.60;61.90;;;;;;5069850;28;20128;-60
2021/03/30 08:18:53;;;;;;;14.30;4.80;;;17.90;59.60;;;;;;5069615;28;20033;-60
2021/03/30 08:21:20;;;;;;;10.88;4.68;;;18.00;60.50;;;;;;5060141;28;20041;-60
2021/03/30 08:23:52;;;;;;;12.60;5.57;;;18.30;58.80;;;;;;5032452;28;20090;-61
2021/03/30 08:26:30;;;;;;;11.90;5.90;;;18.60;57.70;;;;;;5050004;28;20523;-60
2021/03/30 08:29:07;;;;;;;8.57;4.40;;;18.80;57.70;;;;;;5031469;28;20056;-61
2021/03/30 08:31:45;;;;;;;14.05;5.55;;;19.20;57.90;;;;;;5050394;28;20174;-58
2021/03/30 08:34:24;;;;;;;12.85;5.38;;;19.50;57.40;;;;;;5050007;28;20179;-59
2021/03/30 08:36:55;;;;;;;9.48;4.65;;;19.80;55.90;;;;;;5049747;28;20025;-65
2021/03/30 08:39:21;;;;;;;14.75;4.85;;;19.80;58.80;;;;;;5015909;28;20089;-64
2021/03/30 08:41:47;;;;;;;9.13;5.38;;;19.60;63.80;;;;;;5048993;28;20029;-58
2021/03/30 08:44:13;;;;;;;13.55;6.38;;;19.80;55.20;;;;;;5050433;28;20438;-59
2021/03/30 08:46:41;;;;;;;13.40;5.38;;;19.70;54.50;;;;;;5049650;28;20467;-60
2021/03/30 08:49:36;;;;;;;9.48;6.55;;;20.20;54.80;;;;;;5032249;28;20461;-60
2021/03/30 08:52:12;;;;;;;14.45;5.22;;;20.30;53.80;;;;;;5050577;28;20036;-60
2021/03/30 08:54:47;;;;;;;9.25;5.55;;;20.80;53.30;;;;;;5015278;28;20032;-58
2021/03/30 08:57:19;;;;;;;9.70;6.15;;;21.00;52.30;;;;;;5032305;28;20025;-59
2021/03/30 08:59:46;;;;;;;10.43;6.13;;;20.80;51.20;;;;;;5052319;28;20458;-61
2021/03/30 09:02:11;;;;;;;13.88;6.30;;;20.30;52.50;;;;;;5034951;28;20478;-60
2021/03/30 09:04:40;;;;;;;11.57;5.97;;;20.80;51.70;;;;;;5052894;28;20048;-61
2021/03/30 09:07:07;;;;;;;15.18;6.85;;;20.50;52.20;;;;;;5035582;28;20445;-60
2021/03/30 09:09:35;;;;;;;15.57;6.20;;;20.90;51.70;;;;;;5053243;28;20073;-59
2021/03/30 09:12:03;;;;;;;14.23;6.47;;;20.50;51.40;;;;;;5052491;28;20094;-59
2021/03/30 09:14:29;;;;;;;14.25;7.55;;;20.80;51.50;;;;;;5035348;28;20446;-58
2021/03/30 09:17:04;;;;;;;12.50;6.55;;;21.10;50.80;;;;;;5052439;28;20041;-59
2021/03/30 09:19:31;;;;;;;22.23;7.57;;;21.20;50.40;;;;;;5035653;28;20032;-60
2021/03/30 09:22:01;;;;;;;16.02;7.72;;;21.90;50.70;;;;;;5068895;28;20048;-60
2021/03/30 09:24:56;;;;;;;11.35;7.18;;;22.20;48.00;;;;;;5072964;28;20331;-59
2021/03/30 09:27:25;;;;;;;11.35;6.68;;;21.90;49.00;;;;;;5071338;28;20043;-59
2021/03/30 09:29:59;;;;;;;14.93;6.53;;;22.00;49.10;;;;;;5070562;28;20040;-60
2021/03/30 09:32:27;;;;;;;16.13;6.80;;;22.60;49.30;;;;;;5073192;28;20438;-60
2021/03/30 09:35:00;;;;;;;9.43;6.80;;;23.00;47.30;;;;;;5072634;28;20028;-60
2021/03/30 09:37:40;;;;;;;20.60;6.50;;;23.20;48.40;;;;;;5073088;28;20169;-59
2021/03/30 09:40:08;;;;;;;9.90;5.57;;;23.90;46.80;;;;;;5072789;28;20025;-60
2021/03/30 09:42:35;;;;;;;12.93;6.40;;;23.90;47.00;;;;;;5072671;28;20090;-60
2021/03/30 09:45:01;;;;;;;11.05;6.13;;;23.60;46.20;;;;;;5071171;28;20037;-60
2021/03/30 09:47:27;;;;;;;15.90;6.15;;;23.90;47.50;;;;;;5073362;28;20029;-60
2021/03/30 09:49:55;;;;;;;10.10;5.70;;;23.60;45.50;;;;;;5072341;28;20127;-62
2021/03/30 09:52:21;;;;;;;12.43;6.03;;;24.10;45.90;;;;;;5072963;28;20143;-61
2021/03/30 09:54:47;;;;;;;12.20;6.35;;;24.80;45.20;;;;;;5072453;28;20024;-60
2021/03/30 09:57:27;;;;;;;14.55;6.53;;;24.70;44.30;;;;;;5072743;28;20103;-60
2021/03/30 09:59:53;;;;;;;14.05;7.45;;;25.10;44.00;;;;;;5070718;28;20020;-60
2021/03/30 10:02:21;;;;;;;15.27;6.20;;;24.50;43.10;;;;;;5072078;28;20032;-60
2021/03/30 10:04:55;;;;;;;13.35;6.32;;;24.80;44.50;;;;;;5071563;28;20025;-60
2021/03/30 10:07:23;;;;;;;9.07;6.50;;;25.20;43.10;;;;;;5070939;28;20025;-60
2021/03/30 10:10:15;;;;;;;18.17;6.38;;;25.00;42.30;;;;;;5070795;28;20449;-60
2021/03/30 10:12:57;;;;;;;9.88;5.80;;;25.40;42.70;;;;;;5066529;28;20123;-64
2021/03/30 10:15:41;;;;;;;13.13;6.43;;;25.90;44.20;;;;;;5072182;28;20033;-60
2021/03/30 10:18:09;;;;;;;12.38;7.00;;;25.90;41.80;;;;;;5070278;28;20024;-60
2021/03/30 10:20:52;;;;;;;13.80;5.65;;;25.40;42.10;;;;;;5070107;28;20382;-60
2021/03/30 10:23:22;;;;;;;9.68;5.82;;;26.20;42.70;;;;;;5072209;28;20382;-60
2021/03/30 10:25:48;;;;;;;9.27;5.38;;;26.60;40.20;;;;;;5069433;28;20028;-61
2021/03/30 10:28:24;;;;;;;13.00;5.80;;;26.70;42.30;;;;;;5071892;28;20016;-60
2021/03/30 10:30:55;;;;;;;11.23;6.13;;;26.50;40.00;;;;;;5069306;28;20101;-59
2021/03/30 10:33:44;;;;;;;12.20;5.93;;;26.60;41.30;;;;;;5070352;28;20111;-59
2021/03/30 10:36:14;;;;;;;14.40;6.45;;;27.00;39.70;;;;;;5070298;28;20020;-60
2021/03/30 10:38:41;;;;;;;12.85;5.57;;;26.40;40.10;;;;;;5069831;28;20058;-60
2021/03/30 10:41:11;;;;;;;13.18;6.07;;;27.20;41.40;;;;;;5071835;28;20027;-61
2021/03/30 10:43:38;;;;;;;11.80;5.38;;;27.70;39.40;;;;;;5070220;28;20036;-60
2021/03/30 10:46:20;;;;;;;8.73;5.30;;;27.30;38.90;;;;;;5069810;28;20045;-63
2021/03/30 10:49:03;;;;;;;8.50;5.20;;;27.60;38.40;;;;;;5070946;28;20047;-61
2021/03/30 10:51:32;;;;;;;8.90;5.00;;;27.90;38.40;;;;;;5071256;28;20103;-60
2021/03/30 10:54:02;;;;;;;8.40;5.00;;;28.00;37.90;;;;;;5070473;28;20032;-60
2021/03/30 10:56:31;;;;;;;;;;;27.70;38.90;;;;;;5071436;28;20021;-60
2021/03/30 10:58:57;;;;;;;16.80;5.93;;;27.80;38.30;;;;;;5070445;28;19904;-59
2021/03/30 11:01:23;;;;;;;8.18;5.65;;;27.70;36.90;;;;;;5069362;28;20025;-60
2021/03/30 11:03:49;;;;;;;14.10;5.45;;;26.70;37.70;;;;;;5068601;28;20032;-59
2021/03/30 11:06:15;;;;;;;9.55;5.43;;;27.30;38.20;;;;;;5069257;28;20093;-59
2021/03/30 11:08:41;;;;;;;11.80;5.72;;;28.30;38.20;;;;;;5070918;28;20254;-60
2021/03/30 11:11:07;;;;;;;7.18;5.50;;;28.60;37.40;;;;;;5070287;28;20028;-59
2021/03/30 11:13:33;;;;;;;11.13;6.15;;;29.10;37.50;;;;;;5070781;28;20155;-60
2021/03/30 11:15:59;;;;;;;10.80;5.50;;;29.00;36.90;;;;;;5070229;28;20066;-67
2021/03/30 11:18:24;;;;;;;8.75;5.60;;;29.40;35.70;;;;;;5069492;28;20036;-60
2021/03/30 11:20:50;;;;;;;15.48;6.40;;;28.90;35.20;;;;;;5063200;28;20050;-61
2021/03/30 11:23:17;;;;;;;8.98;5.72;;;28.40;35.80;;;;;;5049966;28;20040;-58
2021/03/30 11:25:43;;;;;;;11.93;5.72;;;28.00;37.50;;;;;;5051224;28;20021;-60
2021/03/30 11:28:12;;;;;;;7.85;5.57;;;28.50;37.10;;;;;;5051097;28;20382;-60
2021/03/30 11:30:48;;;;;;;12.23;6.57;;;28.10;36.00;;;;;;5033585;28;20025;-59
2021/03/30 11:33:20;;;;;;;8.98;5.30;;;27.60;37.10;;;;;;5051260;28;20029;-60
2021/03/30 11:35:55;;;;;;;10.88;5.35;;;27.70;36.40;;;;;;5050615;28;20021;-61
2021/03/30 11:38:21;;;;;;;11.90;5.55;;;28.30;36.40;;;;;;5032862;28;20052;-61
2021/03/30 11:40:47;;;;;;;14.40;6.68;;;28.50;35.90;;;;;;5050617;28;20060;-61
2021/03/30 11:43:13;;;;;;;14.48;5.07;;;29.00;35.80;;;;;;5050802;28;20045;-60
2021/03/30 11:45:39;;;;;;;9.48;5.18;;;29.10;35.10;;;;;;5033521;28;20055;-60
2021/03/30 11:48:06;;;;;;;12.13;4.40;;;29.00;35.60;;;;;;5031959;28;20423;-61
2021/03/30 11:50:32;;;;;;;9.60;5.15;;;28.50;34.90;;;;;;5050344;28;20036;-60
2021/03/30 11:52:58;;;;;;;6.32;4.72;;;27.80;34.70;;;;;;5049621;28;20025;-62
2021/03/30 11:55:25;;;;;;;12.38;4.55;;;28.20;35.80;;;;;;5050458;28;20105;-60
2021/03/30 11:57:52;;;;;;;9.55;4.30;;;28.50;35.70;;;;;;5031691;28;20026;-61
2021/03/30 12:00:19;;;;;;;6.68;4.32;;;29.20;35.30;;;;;;5032365;28;20029;-60
2021/03/30 12:02:49;;;;;;;10.93;4.95;;;29.70;34.80;;;;;;5050273;28;20037;-58
2021/03/30 12:05:15;;;;;;;8.18;4.75;;;30.10;34.60;;;;;;5032202;28;20375;-61
2021/03/30 12:07:41;;;;;;;6.30;4.10;;;30.10;34.60;;;;;;5032250;28;20263;-60
2021/03/30 12:10:07;;;;;;;11.57;4.28;;;30.30;34.50;;;;;;5049840;28;20127;-59
2021/03/30 12:12:34;;;;;;;4.95;3.67;;;29.20;33.70;;;;;;5050086;28;20055;-60
2021/03/30 12:15:00;;;;;;;5.45;3.38;;;29.70;35.00;;;;;;5049460;28;20414;-60
2021/03/30 12:17:26;;;;;;;7.53;3.10;;;29.00;33.50;;;;;;5049771;28;20021;-59
2021/03/30 12:19:51;;;;;;;7.45;2.42;;;29.10;35.00;;;;;;5049733;28;20437;-61
2021/03/30 12:22:18;;;;;;;7.30;3.15;;;29.90;35.50;;;;;;5051443;28;20037;-59
2021/03/30 12:24:44;;;;;;;7.38;2.90;;;30.50;34.20;;;;;;5049692;28;20067;-60
2021/03/30 12:27:11;;;;;;;6.20;3.08;;;30.80;33.50;;;;;;5030763;28;20061;-60
2021/03/30 12:29:38;;;;;;;7.60;3.17;;;30.00;30.80;;;;;;5050111;28;20113;-59
2021/03/30 12:32:04;;;;;;;7.63;4.25;;;29.40;31.80;;;;;;5049654;28;20471;-59
2021/03/30 12:34:29;;;;;;;9.45;4.13;;;29.60;33.40;;;;;;5053090;28;20411;-65
2021/03/30 12:36:56;;;;;;;16.00;5.05;;;29.60;33.40;;;;;;5052946;28;20036;-58
2021/03/30 12:39:21;;;;;;;6.78;3.33;;;30.20;32.20;;;;;;5053796;28;20033;-59
2021/03/30 12:41:47;;;;;;;8.02;3.15;;;30.50;32.90;;;;;;5035506;28;20044;-60
2021/03/30 12:44:13;;;;;;;5.55;3.17;;;30.60;31.90;;;;;;5035647;28;20024;-59
2021/03/30 12:46:38;;;;;;;5.65;2.65;;;29.90;31.20;;;;;;5054164;28;20098;-60
2021/03/30 12:49:04;;;;;;;6.10;3.25;;;30.00;31.10;;;;;;5053456;28;20060;-60
2021/03/30 12:51:30;;;;;;;5.60;3.10;;;29.50;31.50;;;;;;5053685;28;20124;-60
2021/03/30 12:53:58;;;;;;;8.85;3.20;;;29.70;32.80;;;;;;5052871;28;20079;-52